createdAt,value
2023-05-01T00:01:27.209Z,52.11
2023-05-01T00:03:55.285Z,52.70
2023-05-01T00:06:23.509Z,52.63
2023-05-01T00:08:51.514Z,52.58
2023-05-01T00:11:19.509Z,52.42
2023-05-01T00:13:47.887Z,52.34
2023-05-01T00:16:18.111Z,52.60
2023-05-01T00:18:46.278Z,52.91
2023-05-01T00:21:14.321Z,53.42
2023-05-01T00:23:42.228Z,52.99
2023-05-01T00:26:10.159Z,53.25
2023-05-01T00:28:38.112Z,52.95
2023-05-01T00:31:06.169Z,52.87
2023-05-01T00:33:35.591Z,53.21
2023-05-01T00:36:03.698Z,53.84
2023-05-01T00:38:32.108Z,53.74
2023-05-01T00:40:59.994Z,53.73
2023-05-01T00:43:28.002Z,53.69
2023-05-01T00:45:55.997Z,53.46
2023-05-01T00:48:24.228Z,53.40
2023-05-01T00:50:55.363Z,53.78
2023-05-01T00:53:26.388Z,53.91
2023-05-01T00:55:56.527Z,54.21
2023-05-01T00:58:24.726Z,54.08
2023-05-01T01:00:53.500Z,54.88
2023-05-01T01:03:21.419Z,53.90
2023-05-01T01:05:57.882Z,54.27
2023-05-01T01:08:32.577Z,54.70
2023-05-01T01:11:09.548Z,55.25
2023-05-01T01:13:44.955Z,54.76
2023-05-01T01:16:20.282Z,54.58
2023-05-01T01:18:54.392Z,54.85
2023-05-01T01:21:34.416Z,55.49
2023-05-01T01:24:28.893Z,55.36
2023-05-01T01:27:20.663Z,55.30
2023-05-01T01:30:04.850Z,55.35
2023-05-01T01:33:02.527Z,55.74
2023-05-01T01:35:34.424Z,55.55
2023-05-01T01:38:07.652Z,55.45
2023-05-01T01:40:40.785Z,55.28
2023-05-01T01:43:13.575Z,54.81
2023-05-01T01:45:44.957Z,55.06
2023-05-01T01:48:17.698Z,55.20
2023-05-01T01:50:51.476Z,55.14
2023-05-01T01:53:20.714Z,55.24
2023-05-01T01:55:52.080Z,55.50
2023-05-01T01:58:26.211Z,55.03
2023-05-01T02:00:56.626Z,55.05
2023-05-01T02:03:25.921Z,55.72
2023-05-01T02:05:57.573Z,55.80
2023-05-01T02:08:26.680Z,55.89
2023-05-01T02:11:01.708Z,56.62
2023-05-01T02:13:32.050Z,56.43
2023-05-01T02:16:02.158Z,56.10
2023-05-01T02:18:32.061Z,56.45
2023-05-01T02:21:02.270Z,55.89
2023-05-01T02:23:33.537Z,56.66
2023-05-01T02:26:05.177Z,56.73
2023-05-01T02:28:35.322Z,56.55
2023-05-01T02:31:03.292Z,56.44
2023-05-01T02:33:31.309Z,56.02
2023-05-01T02:35:59.757Z,56.46
2023-05-01T02:38:29.910Z,57.08
2023-05-01T02:40:59.115Z,57.05
2023-05-01T02:43:28.780Z,56.27
2023-05-01T02:45:59.118Z,56.24
2023-05-01T02:48:29.339Z,56.67
2023-05-01T02:50:58.266Z,57.32
2023-05-01T02:53:26.358Z,57.13
2023-05-01T02:55:56.123Z,56.79
2023-05-01T02:58:24.551Z,57.06
2023-05-01T03:00:52.643Z,57.96
2023-05-01T03:03:20.730Z,57.50
2023-05-01T03:05:48.734Z,57.77
2023-05-01T03:08:17.277Z,57.47
2023-05-01T03:10:45.372Z,57.42
2023-05-01T03:13:14.655Z,57.31
2023-05-01T03:15:42.908Z,57.15
2023-05-01T03:18:10.763Z,57.10
2023-05-01T03:20:38.613Z,56.86
2023-05-01T03:23:07.132Z,57.58
2023-05-01T03:25:35.105Z,57.59
2023-05-01T03:28:02.917Z,57.45
2023-05-01T03:30:35.495Z,57.00
2023-05-01T03:33:03.716Z,57.57
2023-05-01T03:35:31.792Z,57.06
2023-05-01T03:37:59.812Z,56.95
2023-05-01T03:40:27.698Z,56.93
2023-05-01T03:42:55.516Z,57.54
2023-05-01T03:45:23.425Z,57.03
2023-05-01T03:47:53.161Z,57.56
2023-05-01T03:50:20.994Z,57.42
2023-05-01T03:52:49.024Z,56.73
2023-05-01T03:55:17.056Z,57.42
2023-05-01T03:57:47.151Z,57.14
2023-05-01T04:00:15.394Z,57.45
2023-05-01T04:02:44.136Z,57.94
2023-05-01T04:05:14.529Z,57.85
2023-05-01T04:07:42.774Z,57.45
2023-05-01T04:10:11.058Z,57.13
2023-05-01T04:12:39.030Z,57.23
2023-05-01T04:15:08.554Z,57.66
2023-05-01T04:17:37.006Z,58.03
2023-05-01T04:20:06.367Z,57.79
2023-05-01T04:22:35.676Z,57.44
2023-05-01T04:25:04.759Z,57.77
2023-05-01T04:27:32.806Z,58.22
2023-05-01T04:30:00.850Z,57.47
2023-05-01T04:32:28.835Z,57.54
2023-05-01T04:34:56.867Z,57.63
2023-05-01T04:37:24.873Z,57.24
2023-05-01T04:39:55.729Z,58.11
2023-05-01T04:42:24.514Z,57.70
2023-05-01T04:44:52.388Z,57.73
2023-05-01T04:47:20.351Z,57.25
2023-05-01T04:49:48.287Z,57.00
2023-05-01T04:52:16.419Z,57.25
2023-05-01T04:54:44.485Z,56.55
2023-05-01T04:57:13.792Z,56.43
2023-05-01T04:59:41.699Z,56.62
2023-05-01T05:02:09.912Z,56.46
2023-05-01T05:04:38.061Z,55.61
2023-05-01T05:07:05.909Z,55.38
2023-05-01T05:09:33.898Z,55.38
2023-05-01T05:12:03.939Z,55.73
2023-05-01T05:14:33.237Z,55.60
2023-05-01T05:17:01.274Z,55.21
2023-05-01T05:19:29.315Z,54.80
2023-05-01T05:21:57.229Z,54.38
2023-05-01T05:24:26.172Z,54.02
2023-05-01T05:26:55.670Z,54.63
2023-05-01T05:29:23.636Z,53.89
2023-05-01T05:31:53.129Z,53.25
2023-05-01T05:34:21.458Z,53.04
2023-05-01T05:36:49.400Z,53.28
2023-05-01T05:39:17.501Z,53.42
2023-05-01T05:41:45.588Z,52.66
2023-05-01T05:44:13.595Z,53.15
2023-05-01T05:46:41.891Z,52.39
2023-05-01T05:49:12.424Z,52.67
2023-05-01T05:51:40.578Z,52.43
2023-05-01T05:54:08.840Z,52.58
2023-05-01T05:56:37.016Z,52.19
2023-05-01T05:59:06.534Z,51.95
2023-05-01T06:01:37.581Z,51.43
2023-05-01T06:04:06.318Z,51.11
2023-05-01T06:06:35.749Z,51.78
2023-05-01T06:09:04.099Z,50.70
2023-05-01T06:11:32.089Z,50.81
2023-05-01T06:14:00.392Z,50.92
2023-05-01T06:16:28.513Z,50.97
2023-05-01T06:18:56.940Z,50.71
2023-05-01T06:21:27.953Z,50.82
2023-05-01T06:24:00.045Z,49.48
2023-05-01T06:26:28.381Z,49.86
2023-05-01T06:28:56.588Z,48.68
2023-05-01T06:31:24.656Z,48.72
2023-05-01T06:33:55.404Z,48.18
2023-05-01T06:36:23.738Z,48.35
2023-05-01T06:38:52.551Z,47.84
2023-05-01T06:41:22.778Z,47.23
2023-05-01T06:43:50.662Z,47.04
2023-05-01T06:46:19.185Z,46.74
2023-05-01T06:48:47.500Z,46.42
2023-05-01T06:51:16.111Z,41.97
2023-05-01T06:53:44.307Z,37.87
2023-05-01T06:56:12.285Z,35.50
2023-05-01T06:58:41.654Z,33.74
2023-05-01T07:01:09.750Z,31.11
2023-05-01T07:03:38.122Z,29.81
2023-05-01T07:06:06.331Z,29.23
2023-05-01T07:08:34.456Z,28.44
2023-05-01T07:11:02.507Z,28.39
2023-05-01T07:13:30.506Z,26.88
2023-05-01T07:15:59.969Z,26.67
2023-05-01T07:18:27.938Z,26.06
2023-05-01T07:20:55.860Z,25.79
2023-05-01T07:23:25.482Z,25.29
2023-05-01T07:25:53.886Z,24.70
2023-05-01T07:28:22.876Z,23.83
2023-05-01T07:30:50.757Z,23.89
2023-05-01T07:33:20.283Z,23.50
2023-05-01T07:35:48.333Z,24.02
2023-05-01T07:38:17.972Z,23.64
2023-05-01T07:40:46.358Z,23.03
2023-05-01T07:43:14.291Z,23.23
2023-05-01T07:45:42.940Z,23.16
2023-05-01T07:48:11.301Z,22.63
2023-05-01T07:50:41.545Z,21.99
2023-05-01T07:53:09.417Z,21.79
2023-05-01T07:55:37.936Z,22.15
2023-05-01T07:58:06.720Z,22.08
2023-05-01T08:00:34.749Z,21.61
2023-05-01T08:03:03.160Z,21.53
2023-05-01T08:05:31.923Z,21.73
2023-05-01T08:08:01.324Z,21.11
2023-05-01T08:10:29.265Z,21.23
2023-05-01T08:12:57.179Z,21.30
2023-05-01T08:15:25.426Z,21.84
2023-05-01T08:17:53.387Z,20.94
2023-05-01T08:20:21.529Z,21.33
2023-05-01T08:22:49.404Z,20.95
2023-05-01T08:25:19.480Z,20.60
2023-05-01T08:27:47.400Z,20.69
2023-05-01T08:30:15.982Z,20.66
2023-05-01T08:32:44.077Z,20.22
2023-05-01T08:35:12.052Z,21.23
2023-05-01T08:37:40.736Z,21.66
2023-05-01T08:40:10.397Z,21.46
2023-05-01T08:42:39.945Z,21.28
2023-05-01T08:45:10.486Z,21.15
2023-05-01T08:47:40.292Z,19.97
2023-05-01T08:50:13.126Z,20.21
2023-05-01T08:52:43.399Z,20.58
2023-05-01T08:55:14.887Z,20.48
2023-05-01T08:57:47.692Z,19.52
2023-05-01T09:00:20.385Z,19.99
2023-05-01T09:02:50.416Z,20.66
2023-05-01T09:05:19.742Z,20.60
2023-05-01T09:07:49.515Z,20.89
2023-05-01T09:10:19.085Z,20.91
2023-05-01T09:12:55.399Z,20.75
2023-05-01T09:15:27.130Z,19.97
2023-05-01T09:17:55.922Z,20.55
2023-05-01T09:20:25.481Z,19.33
2023-05-01T09:22:56.902Z,19.88
2023-05-01T09:25:24.956Z,19.90
2023-05-01T09:27:57.011Z,19.47
2023-05-01T09:30:32.588Z,20.33
2023-05-01T09:33:13.863Z,20.39
2023-05-01T09:35:53.137Z,21.26
2023-05-01T09:38:22.831Z,21.30
2023-05-01T09:40:51.055Z,21.60
2023-05-01T09:43:31.677Z,22.64
2023-05-01T09:46:05.477Z,24.13
2023-05-01T09:48:36.070Z,25.00
2023-05-01T09:51:21.606Z,24.79
2023-05-01T09:53:50.075Z,24.45
2023-05-01T09:56:18.520Z,26.00
2023-05-01T09:58:48.370Z,25.39
2023-05-01T10:01:16.757Z,26.15
2023-05-01T10:03:46.410Z,26.24
2023-05-01T10:06:29.033Z,26.24
2023-05-01T10:09:20.961Z,26.25
2023-05-01T10:11:50.569Z,26.02
2023-05-01T10:14:21.913Z,26.07
2023-05-01T10:16:53.218Z,27.35
2023-05-01T10:19:21.908Z,26.11
2023-05-01T10:21:49.931Z,26.59
2023-05-01T10:24:19.125Z,25.63
2023-05-01T10:26:49.996Z,26.78
2023-05-01T10:29:24.707Z,26.75
2023-05-01T10:31:54.051Z,26.10
2023-05-01T10:34:27.052Z,26.31
2023-05-01T10:37:01.906Z,24.51
2023-05-01T10:39:34.087Z,24.99
2023-05-01T10:42:03.881Z,26.21
2023-05-01T10:44:34.943Z,25.41
2023-05-01T10:47:37.846Z,25.05
2023-05-01T10:50:08.369Z,26.29
2023-05-01T10:53:14.663Z,24.98
2023-05-01T10:55:47.176Z,25.68
2023-05-01T10:58:18.446Z,26.86
2023-05-01T11:01:26.416Z,27.38
2023-05-01T11:03:54.495Z,26.23
2023-05-01T11:06:23.310Z,25.80
2023-05-01T11:08:51.924Z,25.54
2023-05-01T11:11:50.121Z,26.76
2023-05-01T11:14:18.789Z,26.08
2023-05-01T11:16:49.410Z,26.31
2023-05-01T11:19:50.826Z,25.22
2023-05-01T11:22:19.453Z,25.97
2023-05-01T11:24:48.080Z,25.78
2023-05-01T11:27:17.009Z,26.15
2023-05-01T11:29:49.629Z,26.33
2023-05-01T11:32:27.247Z,26.92
2023-05-01T11:34:55.861Z,26.44
2023-05-01T11:37:43.048Z,25.33
2023-05-01T11:40:22.479Z,25.56
2023-05-01T11:42:51.250Z,25.68
2023-05-01T11:45:20.971Z,26.46
2023-05-01T11:47:50.520Z,24.61
2023-05-01T11:50:18.553Z,25.08
2023-05-01T11:52:49.325Z,25.61
2023-05-01T11:55:17.803Z,26.41
2023-05-01T11:57:50.257Z,25.16
2023-05-01T12:00:28.510Z,26.44
2023-05-01T12:03:03.120Z,25.92
2023-05-01T12:05:32.478Z,25.51
2023-05-01T12:08:11.839Z,25.82
2023-05-01T12:10:41.816Z,26.04
2023-05-01T12:13:11.175Z,25.22
2023-05-01T12:15:40.915Z,26.54
2023-05-01T12:18:10.546Z,26.65
2023-05-01T12:20:39.973Z,27.09
2023-05-01T12:23:09.775Z,26.38
2023-05-01T12:25:39.543Z,26.73
2023-05-01T12:28:11.992Z,26.09
2023-05-01T12:30:40.804Z,26.59
2023-05-01T12:33:15.110Z,26.34
2023-05-01T12:35:45.359Z,26.65
2023-05-01T12:38:15.348Z,26.49
2023-05-01T12:40:53.943Z,26.94
2023-05-01T12:43:23.236Z,27.19
2023-05-01T12:45:54.971Z,27.15
2023-05-01T12:48:25.343Z,27.81
2023-05-01T12:50:55.348Z,28.32
2023-05-01T12:53:24.350Z,28.07
2023-05-01T12:55:54.518Z,27.66
2023-05-01T12:58:22.706Z,27.48
2023-05-01T13:00:53.046Z,27.21
2023-05-01T13:03:28.084Z,27.59
2023-05-01T13:05:58.092Z,26.91
2023-05-01T13:08:31.618Z,26.88
2023-05-01T13:11:01.999Z,27.73
2023-05-01T13:13:32.099Z,26.29
2023-05-01T13:16:08.861Z,27.20
2023-05-01T13:18:49.646Z,26.61
2023-05-01T13:21:19.622Z,26.70
2023-05-01T13:23:54.733Z,26.42
2023-05-01T13:26:28.849Z,26.78
2023-05-01T13:28:57.855Z,26.42
2023-05-01T13:31:26.296Z,26.02
2023-05-01T13:33:57.047Z,25.76
2023-05-01T13:36:27.089Z,25.70
2023-05-01T13:38:56.975Z,25.91
2023-05-01T13:41:27.445Z,26.04
2023-05-01T13:43:56.634Z,26.28
2023-05-01T13:46:26.907Z,26.34
2023-05-01T13:48:56.409Z,26.37
2023-05-01T13:51:26.459Z,26.44
2023-05-01T13:53:54.520Z,26.92
2023-05-01T13:56:22.865Z,26.21
2023-05-01T13:58:51.380Z,26.37
2023-05-01T14:01:21.374Z,26.71
2023-05-01T14:03:50.397Z,26.47
2023-05-01T14:06:21.920Z,25.85
2023-05-01T14:08:50.096Z,26.03
2023-05-01T14:11:20.101Z,26.18
2023-05-01T14:13:49.734Z,26.04
2023-05-01T14:16:25.911Z,25.91
2023-05-01T14:18:57.277Z,26.53
2023-05-01T14:21:28.787Z,26.13
2023-05-01T14:23:58.325Z,26.05
2023-05-01T14:26:26.330Z,25.81
2023-05-01T14:28:54.683Z,26.10
2023-05-01T14:31:27.355Z,26.71
2023-05-01T14:33:57.458Z,26.56
2023-05-01T14:36:28.426Z,26.91
2023-05-01T14:38:57.900Z,27.52
2023-05-01T14:41:25.971Z,27.70
2023-05-01T14:43:54.453Z,27.55
2023-05-01T14:46:29.621Z,27.86
2023-05-01T14:48:57.973Z,27.78
2023-05-01T14:51:27.366Z,27.68
2023-05-01T14:53:56.044Z,27.74
2023-05-01T14:56:24.050Z,27.96
2023-05-01T14:58:52.073Z,27.85
2023-05-01T15:01:20.556Z,28.29
2023-05-01T15:03:49.076Z,27.58
2023-05-01T15:06:17.494Z,27.87
2023-05-01T15:08:46.874Z,28.12
2023-05-01T15:11:15.374Z,27.61
2023-05-01T15:13:44.299Z,28.12
2023-05-01T15:16:12.291Z,28.21
2023-05-01T15:18:40.619Z,28.09
2023-05-01T15:21:08.497Z,28.41
2023-05-01T15:23:37.157Z,28.34
2023-05-01T15:26:06.550Z,28.74
2023-05-01T15:28:34.382Z,29.06
2023-05-01T15:31:02.332Z,29.09
2023-05-01T15:33:30.447Z,29.49
2023-05-01T15:35:59.686Z,29.33
2023-05-01T15:38:28.315Z,29.84
2023-05-01T15:40:56.388Z,29.57
2023-05-01T15:43:25.619Z,29.96
2023-05-01T15:45:57.881Z,30.10
2023-05-01T15:48:26.176Z,30.07
2023-05-01T15:50:54.167Z,30.42
2023-05-01T15:53:22.477Z,30.50
2023-05-01T15:55:50.337Z,30.84
2023-05-01T15:58:19.045Z,30.62
2023-05-01T16:00:50.071Z,30.78
2023-05-01T16:03:18.220Z,30.98
2023-05-01T16:05:47.670Z,30.95
2023-05-01T16:08:15.974Z,31.11
2023-05-01T16:10:43.997Z,31.25
2023-05-01T16:13:12.828Z,31.44
2023-05-01T16:15:40.827Z,31.76
2023-05-01T16:18:17.409Z,32.10
2023-05-01T16:20:45.817Z,32.14
2023-05-01T16:23:16.080Z,32.19
2023-05-01T16:25:44.770Z,32.51
2023-05-01T16:28:13.528Z,32.55
2023-05-01T16:30:44.684Z,32.47
2023-05-01T16:33:19.166Z,32.45
2023-05-01T16:35:49.386Z,32.38
2023-05-01T16:38:17.965Z,32.65
2023-05-01T16:40:46.882Z,32.88
2023-05-01T16:43:15.096Z,33.07
2023-05-01T16:45:43.131Z,33.28
2023-05-01T16:48:11.549Z,33.41
2023-05-01T16:50:42.943Z,33.73
2023-05-01T16:53:10.852Z,33.88
2023-05-01T16:55:38.725Z,34.29
2023-05-01T16:58:06.974Z,34.33
2023-05-01T17:00:34.907Z,35.02
2023-05-01T17:03:02.990Z,35.31
2023-05-01T17:05:30.975Z,35.55
2023-05-01T17:08:00.229Z,36.00
2023-05-01T17:10:28.205Z,36.55
2023-05-01T17:12:56.516Z,36.87
2023-05-01T17:15:24.373Z,37.25
2023-05-01T17:17:52.242Z,37.57
2023-05-01T17:20:20.268Z,37.94
2023-05-01T17:22:48.156Z,37.62
2023-05-01T17:25:17.568Z,38.23
2023-05-01T17:27:45.478Z,38.63
2023-05-01T17:30:13.818Z,38.63
2023-05-01T17:32:41.892Z,39.38
2023-05-01T17:35:10.258Z,39.45
2023-05-01T17:37:39.814Z,40.07
2023-05-01T17:40:11.051Z,39.90
2023-05-01T17:42:40.462Z,40.06
2023-05-01T17:45:10.372Z,40.45
2023-05-01T17:47:41.668Z,39.98
2023-05-01T17:50:12.310Z,40.06
2023-05-01T17:52:40.451Z,40.15
2023-05-01T17:55:09.112Z,40.30
2023-05-01T17:57:37.067Z,40.35
2023-05-01T18:00:07.905Z,40.40
2023-05-01T18:02:36.838Z,40.59
2023-05-01T18:05:06.137Z,40.69
2023-05-01T18:07:36.354Z,40.38
2023-05-01T18:10:04.711Z,40.36
2023-05-01T18:12:32.545Z,40.25
2023-05-01T18:15:00.477Z,40.07
2023-05-01T18:17:29.759Z,39.61
2023-05-01T18:19:57.833Z,38.84
2023-05-01T18:22:29.194Z,39.08
2023-05-01T18:24:57.377Z,39.11
2023-05-01T18:27:26.087Z,39.18
2023-05-01T18:29:55.531Z,38.82
2023-05-01T18:32:30.224Z,38.86
2023-05-01T18:35:05.852Z,38.77
2023-05-01T18:37:34.256Z,38.82
2023-05-01T18:40:02.304Z,38.41
2023-05-01T18:42:30.293Z,38.32
2023-05-01T18:44:58.197Z,38.28
2023-05-01T18:47:26.744Z,37.63
2023-05-01T18:49:55.060Z,37.23
2023-05-01T18:52:24.458Z,36.89
2023-05-01T18:54:52.381Z,36.98
2023-05-01T18:57:20.493Z,36.72
2023-05-01T18:59:48.507Z,36.82
2023-05-01T19:02:16.475Z,36.86
2023-05-01T19:04:56.623Z,36.92
2023-05-01T19:07:27.735Z,36.87
2023-05-01T19:09:55.843Z,36.99
2023-05-01T19:12:23.806Z,37.51
2023-05-01T19:14:52.230Z,37.90
2023-05-01T19:17:21.015Z,37.95
2023-05-01T19:19:49.381Z,38.25
2023-05-01T19:22:17.737Z,38.46
2023-05-01T19:24:47.181Z,39.07
2023-05-01T19:27:15.143Z,39.20
2023-05-01T19:29:43.115Z,39.30
2023-05-01T19:32:11.391Z,39.57
2023-05-01T19:34:39.583Z,40.06
2023-05-01T19:37:07.501Z,40.66
2023-05-01T19:39:37.209Z,40.22
2023-05-01T19:42:06.532Z,40.53
2023-05-01T19:44:35.496Z,40.55
2023-05-01T19:47:03.548Z,41.02
2023-05-01T19:49:31.413Z,41.08
2023-05-01T19:51:59.439Z,41.13
2023-05-01T19:54:27.341Z,41.15
2023-05-01T19:56:56.172Z,41.34
2023-05-01T19:59:32.652Z,41.58
2023-05-01T20:02:01.601Z,41.67
2023-05-01T20:04:29.693Z,42.50
2023-05-01T20:06:58.040Z,42.34
2023-05-01T20:09:26.934Z,42.60
2023-05-01T20:11:55.059Z,42.66
2023-05-01T20:14:23.225Z,42.88
2023-05-01T20:16:53.096Z,42.89
2023-05-01T20:19:21.100Z,43.14
2023-05-01T20:21:49.081Z,43.14
2023-05-01T20:24:17.064Z,43.34
2023-05-01T20:26:45.041Z,43.79
2023-05-01T20:29:13.917Z,43.56
2023-05-01T20:31:41.802Z,43.99
2023-05-01T20:34:11.163Z,44.00
2023-05-01T20:36:39.636Z,44.21
2023-05-01T20:39:08.299Z,44.59
2023-05-01T20:41:38.404Z,45.08
2023-05-01T20:44:07.193Z,45.21
2023-05-01T20:46:35.200Z,44.93
2023-05-01T20:49:05.476Z,45.23
2023-05-01T20:51:34.954Z,46.21
2023-05-01T20:54:02.969Z,46.13
2023-05-01T20:56:30.991Z,46.75
2023-05-01T20:59:00.372Z,46.78
2023-05-01T21:01:30.618Z,47.06
2023-05-01T21:04:00.173Z,47.12
2023-05-01T21:06:28.516Z,47.76
2023-05-01T21:09:00.227Z,48.04
2023-05-01T21:11:28.307Z,48.88
2023-05-01T21:13:58.285Z,48.59
2023-05-01T21:16:27.688Z,49.43
2023-05-01T21:18:55.681Z,49.38
2023-05-01T21:21:25.003Z,49.56
2023-05-01T21:23:53.223Z,49.86
2023-05-01T21:26:22.871Z,49.38
2023-05-01T21:28:50.907Z,49.44
2023-05-01T21:31:19.059Z,49.82
2023-05-01T21:33:47.440Z,50.17
2023-05-01T21:36:18.500Z,50.19
2023-05-01T21:38:47.127Z,50.01
2023-05-01T21:41:15.770Z,50.24
2023-05-01T21:43:45.358Z,49.96
2023-05-01T21:46:17.931Z,50.33
2023-05-01T21:48:50.549Z,49.56
2023-05-01T21:51:19.383Z,49.63
2023-05-01T21:53:47.727Z,48.97
2023-05-01T21:56:15.759Z,49.13
2023-05-01T21:58:45.009Z,48.74
2023-05-01T22:01:14.482Z,48.78
2023-05-01T22:03:43.480Z,48.57
2023-05-01T22:06:11.660Z,48.78
2023-05-01T22:08:39.648Z,48.68
2023-05-01T22:11:08.531Z,48.36
2023-05-01T22:13:36.667Z,48.46
2023-05-01T22:16:06.720Z,48.35
2023-05-01T22:18:34.709Z,48.81
2023-05-01T22:21:03.568Z,49.12
2023-05-01T22:23:31.512Z,49.37
2023-05-01T22:26:00.767Z,48.87
2023-05-01T22:28:29.125Z,49.64
2023-05-01T22:30:57.065Z,49.03
2023-05-01T22:33:26.403Z,49.37
2023-05-01T22:35:54.405Z,50.00
2023-05-01T22:38:22.241Z,49.82
2023-05-01T22:40:50.176Z,49.95
2023-05-01T22:43:18.139Z,50.56
2023-05-01T22:45:46.521Z,50.47
2023-05-01T22:48:14.392Z,50.48
2023-05-01T22:50:44.008Z,50.52
2023-05-01T22:53:12.172Z,50.22
2023-05-01T22:55:40.204Z,50.69
2023-05-01T22:58:08.367Z,50.82
2023-05-01T23:00:36.618Z,51.00
2023-05-01T23:03:05.084Z,50.75
2023-05-01T23:05:33.249Z,51.14
2023-05-01T23:08:02.835Z,50.99
2023-05-01T23:10:33.001Z,51.04
2023-05-01T23:13:01.930Z,51.13
2023-05-01T23:15:29.807Z,51.60
2023-05-01T23:17:57.783Z,51.90
2023-05-01T23:20:26.293Z,52.17
2023-05-01T23:22:54.952Z,52.60
2023-05-01T23:25:27.310Z,53.51
2023-05-01T23:27:56.630Z,54.26
2023-05-01T23:30:24.860Z,54.71
2023-05-01T23:32:53.034Z,55.36
2023-05-01T23:35:23.882Z,56.48
2023-05-01T23:37:53.956Z,57.31
2023-05-01T23:40:22.558Z,57.49
2023-05-01T23:42:52.736Z,59.47
2023-05-01T23:45:20.777Z,60.17
2023-05-01T23:47:48.778Z,61.03
2023-05-01T23:50:16.776Z,60.60
2023-05-01T23:52:44.767Z,61.69
2023-05-01T23:55:12.648Z,62.78
2023-05-01T23:57:40.696Z,63.99
